createdAt,value
2022-11-22T00:02:23.008Z,100.00
2022-11-22T00:04:49.547Z,100.00
2022-11-22T00:07:16.072Z,100.00
2022-11-22T00:09:42.582Z,100.00
2022-11-22T00:12:09.096Z,100.00
2022-11-22T00:14:35.695Z,100.00
2022-11-22T00:17:02.185Z,100.00
2022-11-22T00:19:28.862Z,100.00
2022-11-22T00:21:55.526Z,100.00
2022-11-22T00:24:22.141Z,100.00
2022-11-22T00:26:48.642Z,100.00
2022-11-22T00:29:16.080Z,100.00
2022-11-22T00:31:42.585Z,100.00
2022-11-22T00:34:09.103Z,100.00
2022-11-22T00:36:35.688Z,100.00
2022-11-22T00:39:02.196Z,100.00
2022-11-22T00:41:28.756Z,100.00
2022-11-22T00:43:55.314Z,100.00
2022-11-22T00:46:21.815Z,100.00
2022-11-22T00:48:48.352Z,100.00
2022-11-22T00:51:14.857Z,100.00
2022-11-22T00:53:41.754Z,100.00
2022-11-22T00:56:08.390Z,100.00
2022-11-22T00:58:34.940Z,100.00
2022-11-22T01:01:01.639Z,100.00
2022-11-22T01:03:28.288Z,100.00
2022-11-22T01:05:54.832Z,100.00
2022-11-22T01:08:21.349Z,100.00
2022-11-22T01:10:47.865Z,100.00
2022-11-22T01:13:14.440Z,100.00
2022-11-22T01:15:41.026Z,100.00
2022-11-22T01:18:07.563Z,100.00
2022-11-22T01:20:34.203Z,100.00
2022-11-22T01:23:00.704Z,100.00
2022-11-22T01:25:27.246Z,100.00
2022-11-22T01:27:53.756Z,100.00
2022-11-22T01:30:20.461Z,100.00
2022-11-22T01:32:46.957Z,100.00
2022-11-22T01:35:13.788Z,100.00
2022-11-22T01:37:40.339Z,100.00
2022-11-22T01:40:07.796Z,100.00
2022-11-22T01:42:51.954Z,100.00
2022-11-22T01:45:30.580Z,100.00
2022-11-22T01:48:07.747Z,100.00
2022-11-22T01:50:37.557Z,100.00
2022-11-22T01:53:10.885Z,100.00
2022-11-22T01:55:37.498Z,100.00
2022-11-22T01:58:04.645Z,100.00
2022-11-22T02:00:31.140Z,100.00
2022-11-22T02:03:01.746Z,100.00
2022-11-22T02:05:32.678Z,100.00
2022-11-22T02:08:10.504Z,100.00
2022-11-22T02:10:43.498Z,100.00
2022-11-22T02:13:10.966Z,100.00
2022-11-22T02:15:37.613Z,100.00
2022-11-22T02:18:04.247Z,100.00
2022-11-22T02:20:31.458Z,100.00
2022-11-22T02:23:16.773Z,100.00
2022-11-22T02:26:02.883Z,100.00
2022-11-22T02:28:32.222Z,100.00
2022-11-22T02:30:58.808Z,100.00
2022-11-22T02:33:25.379Z,100.00
2022-11-22T02:35:52.104Z,100.00
2022-11-22T02:38:24.896Z,100.00
2022-11-22T02:41:02.113Z,100.00
2022-11-22T02:43:34.937Z,100.00
2022-11-22T02:46:06.659Z,100.00
2022-11-22T02:48:33.217Z,100.00
2022-11-22T02:50:59.914Z,100.00
2022-11-22T02:53:26.464Z,100.00
2022-11-22T02:55:53.037Z,100.00
2022-11-22T02:58:19.541Z,100.00
2022-11-22T03:00:46.214Z,100.00
2022-11-22T03:03:12.814Z,100.00
2022-11-22T03:05:39.350Z,100.00
2022-11-22T03:08:05.890Z,100.00
2022-11-22T03:10:32.446Z,100.00
2022-11-22T03:12:59.668Z,100.00
2022-11-22T03:15:26.494Z,100.00
2022-11-22T03:18:00.934Z,100.00
2022-11-22T03:20:28.099Z,100.00
2022-11-22T03:22:54.730Z,100.00
2022-11-22T03:25:21.297Z,100.00
2022-11-22T03:27:47.896Z,100.00
2022-11-22T03:30:14.947Z,100.00
2022-11-22T03:32:41.603Z,100.00
2022-11-22T03:35:08.644Z,100.00
2022-11-22T03:37:35.170Z,100.00
2022-11-22T03:40:02.011Z,100.00
2022-11-22T03:42:28.536Z,100.00
2022-11-22T03:44:55.072Z,100.00
2022-11-22T03:47:21.599Z,100.00
2022-11-22T03:49:48.168Z,100.00
2022-11-22T03:52:15.014Z,100.00
2022-11-22T03:54:41.634Z,100.00
2022-11-22T03:57:08.160Z,100.00
2022-11-22T03:59:34.769Z,100.00
2022-11-22T04:02:01.390Z,100.00
2022-11-22T04:04:28.168Z,100.00
2022-11-22T04:06:54.654Z,100.00
2022-11-22T04:09:21.375Z,100.00
2022-11-22T04:11:48.032Z,100.00
2022-11-22T04:14:33.347Z,100.00
2022-11-22T04:16:59.898Z,100.00
2022-11-22T04:19:26.485Z,100.00
2022-11-22T04:21:53.041Z,100.00
2022-11-22T04:24:38.199Z,100.00
2022-11-22T04:27:04.799Z,100.00
2022-11-22T04:29:31.621Z,100.00
2022-11-22T04:32:17.018Z,100.00
2022-11-22T04:34:43.607Z,100.00
2022-11-22T04:37:10.150Z,100.00
2022-11-22T04:39:36.847Z,100.00
2022-11-22T04:42:21.950Z,100.00
2022-11-22T04:44:48.582Z,100.00
2022-11-22T04:47:36.865Z,100.00
2022-11-22T04:50:26.034Z,100.00
2022-11-22T04:52:55.162Z,100.00
2022-11-22T04:55:22.418Z,100.00
2022-11-22T04:57:50.427Z,100.00
2022-11-22T05:00:18.811Z,100.00
2022-11-22T05:02:45.477Z,100.00
2022-11-22T05:05:12.141Z,100.00
2022-11-22T05:07:38.793Z,100.00
2022-11-22T05:10:05.572Z,100.00
2022-11-22T05:12:32.230Z,100.00
2022-11-22T05:14:58.764Z,100.00
2022-11-22T05:17:25.296Z,100.00
2022-11-22T05:19:51.944Z,100.00
2022-11-22T05:22:38.412Z,100.00
2022-11-22T05:25:05.499Z,100.00
2022-11-22T05:27:32.052Z,100.00
2022-11-22T05:29:58.696Z,100.00
2022-11-22T05:32:25.225Z,100.00
2022-11-22T05:34:52.029Z,100.00
2022-11-22T05:37:18.598Z,100.00
2022-11-22T05:39:45.092Z,100.00
2022-11-22T05:42:11.677Z,100.00
2022-11-22T05:44:38.295Z,100.00
2022-11-22T05:47:04.900Z,100.00
2022-11-22T05:49:32.144Z,100.00
2022-11-22T05:51:59.134Z,100.00
2022-11-22T05:54:25.746Z,100.00
2022-11-22T05:56:52.282Z,100.00
2022-11-22T05:59:18.847Z,100.00
2022-11-22T06:01:45.385Z,100.00
2022-11-22T06:04:12.202Z,100.00
2022-11-22T06:06:38.721Z,100.00
2022-11-22T06:09:05.318Z,100.00
2022-11-22T06:11:32.024Z,100.00
2022-11-22T06:14:04.868Z,100.00
2022-11-22T06:16:31.491Z,100.00
2022-11-22T06:18:58.032Z,100.00
2022-11-22T06:21:26.333Z,100.00
2022-11-22T06:23:56.405Z,100.00
2022-11-22T06:26:24.175Z,100.00
2022-11-22T06:28:50.872Z,100.00
2022-11-22T06:31:23.227Z,100.00
2022-11-22T06:33:49.825Z,100.00
2022-11-22T06:36:19.043Z,100.00
2022-11-22T06:38:46.245Z,100.00
2022-11-22T06:41:18.186Z,100.00
2022-11-22T06:43:48.998Z,100.00
2022-11-22T06:46:18.331Z,100.00
2022-11-22T06:48:45.347Z,100.00
2022-11-22T06:51:15.028Z,100.00
2022-11-22T06:53:49.785Z,100.00
2022-11-22T06:56:30.792Z,100.00
2022-11-22T06:58:57.834Z,100.00
2022-11-22T07:01:26.888Z,100.00
2022-11-22T07:03:58.441Z,100.00
2022-11-22T07:06:30.994Z,100.00
2022-11-22T07:08:58.694Z,100.00
2022-11-22T07:11:28.081Z,100.00
2022-11-22T07:13:59.036Z,100.00
2022-11-22T07:16:28.536Z,100.00
2022-11-22T07:18:55.110Z,100.00
2022-11-22T07:21:24.307Z,100.00
2022-11-22T07:23:52.923Z,100.00
2022-11-22T07:26:21.283Z,100.00
2022-11-22T07:28:48.465Z,100.00
2022-11-22T07:31:17.222Z,100.00
2022-11-22T07:33:44.248Z,100.00
2022-11-22T07:36:21.875Z,100.00
2022-11-22T07:38:49.187Z,100.00
2022-11-22T07:41:17.163Z,100.00
2022-11-22T07:43:44.357Z,100.00
2022-11-22T07:46:26.386Z,100.00
2022-11-22T07:48:53.178Z,100.00
2022-11-22T07:51:19.757Z,100.00
2022-11-22T07:53:46.438Z,100.00
2022-11-22T07:56:13.124Z,100.00
2022-11-22T07:58:40.175Z,100.00
2022-11-22T08:01:12.399Z,100.00
2022-11-22T08:03:39.821Z,100.00
2022-11-22T08:06:08.468Z,100.00
2022-11-22T08:08:36.296Z,100.00
2022-11-22T08:11:03.877Z,100.00
2022-11-22T08:13:31.414Z,100.00
2022-11-22T08:16:05.602Z,100.00
2022-11-22T08:18:33.193Z,100.00
2022-11-22T08:21:04.608Z,100.00
2022-11-22T08:23:31.215Z,100.00
2022-11-22T08:25:59.094Z,100.00
2022-11-22T08:28:26.107Z,100.00
2022-11-22T08:30:58.461Z,100.00
2022-11-22T08:33:25.025Z,100.00
2022-11-22T08:35:51.692Z,100.00
2022-11-22T08:38:18.300Z,100.00
2022-11-22T08:40:45.060Z,100.00
2022-11-22T08:43:11.683Z,100.00
2022-11-22T08:45:39.140Z,100.00
2022-11-22T08:48:05.858Z,100.00
2022-11-22T08:50:32.455Z,100.00
2022-11-22T08:53:01.432Z,100.00
2022-11-22T08:55:27.965Z,100.00
2022-11-22T08:57:59.078Z,100.00
2022-11-22T09:00:31.704Z,100.00
2022-11-22T09:02:59.799Z,100.00
2022-11-22T09:05:26.612Z,100.00
2022-11-22T09:10:39.949Z,100.00
2022-11-22T09:13:06.500Z,100.00
2022-11-22T09:15:33.309Z,100.00
2022-11-22T09:18:02.077Z,100.00
2022-11-22T09:20:28.784Z,100.00
2022-11-22T09:22:55.381Z,100.00
2022-11-22T09:25:22.394Z,100.00
2022-11-22T09:27:49.045Z,100.00
2022-11-22T09:30:15.900Z,100.00
2022-11-22T09:32:44.641Z,100.00
2022-11-22T09:35:11.249Z,100.00
2022-11-22T09:37:37.836Z,100.00
2022-11-22T09:40:04.808Z,100.00
2022-11-22T09:42:51.664Z,100.00
2022-11-22T09:45:53.753Z,100.00
2022-11-22T09:48:40.070Z,100.00
2022-11-22T09:51:17.304Z,100.00
2022-11-22T09:53:59.792Z,100.00
2022-11-22T09:56:28.387Z,100.00
2022-11-22T09:59:05.993Z,100.00
2022-11-22T10:01:51.170Z,100.00
2022-11-22T10:04:24.219Z,100.00
2022-11-22T10:06:58.790Z,100.00
2022-11-22T10:09:39.413Z,100.00
2022-11-22T10:12:17.528Z,100.00
2022-11-22T10:15:12.385Z,100.00
2022-11-22T10:17:51.871Z,100.00
2022-11-22T10:20:29.806Z,100.00
2022-11-22T10:22:58.641Z,100.00
2022-11-22T10:25:44.647Z,100.00
2022-11-22T10:28:15.124Z,100.00
2022-11-22T10:30:53.788Z,100.00
2022-11-22T10:33:29.648Z,100.00
2022-11-22T10:36:17.117Z,100.00
2022-11-22T10:39:02.164Z,100.00
2022-11-22T10:41:42.964Z,100.00
2022-11-22T10:45:00.930Z,100.00
2022-11-22T10:47:34.515Z,100.00
2022-11-22T10:50:11.433Z,100.00
2022-11-22T10:53:03.431Z,100.00
2022-11-22T10:56:11.134Z,100.00
2022-11-22T10:59:15.372Z,100.00
2022-11-22T11:02:00.236Z,100.00
2022-11-22T11:04:34.547Z,100.00
2022-11-22T11:07:12.069Z,100.00
2022-11-22T11:12:47.438Z,100.00
2022-11-22T11:15:23.407Z,100.00
2022-11-22T11:17:55.923Z,100.00
2022-11-22T11:20:35.420Z,100.00
2022-11-22T11:23:17.178Z,100.00
2022-11-22T11:25:46.146Z,100.00
2022-11-22T11:28:27.271Z,100.00
2022-11-22T11:31:02.475Z,100.00
2022-11-22T11:33:31.675Z,100.00
2022-11-22T11:36:23.613Z,100.00
2022-11-22T11:38:57.704Z,100.00
2022-11-22T11:41:35.314Z,100.00
2022-11-22T11:44:05.863Z,100.00
2022-11-22T11:46:41.515Z,100.00
2022-11-22T11:49:15.345Z,100.00
2022-11-22T11:51:54.170Z,100.00
2022-11-22T11:54:23.929Z,100.00
2022-11-22T11:56:58.939Z,100.00
2022-11-22T11:59:45.644Z,100.00
2022-11-22T12:02:15.287Z,100.00
2022-11-22T12:04:55.222Z,100.00
2022-11-22T12:07:27.558Z,100.00
2022-11-22T12:09:55.931Z,100.00
2022-11-22T12:12:43.966Z,100.00
2022-11-22T12:15:19.694Z,100.00
2022-11-22T12:17:57.706Z,100.00
2022-11-22T12:20:41.900Z,100.00
2022-11-22T12:23:17.376Z,100.00
2022-11-22T12:25:45.536Z,100.00
2022-11-22T12:28:19.293Z,100.00
2022-11-22T12:30:56.834Z,100.00
2022-11-22T12:33:34.213Z,100.00
2022-11-22T12:36:04.204Z,100.00
2022-11-22T12:38:40.321Z,97.45
2022-11-22T12:41:12.388Z,100.00
2022-11-22T12:43:48.679Z,98.77
2022-11-22T12:46:26.467Z,100.00
2022-11-22T12:49:02.789Z,100.00
2022-11-22T12:52:04.550Z,100.00
2022-11-22T12:54:42.666Z,98.69
2022-11-22T12:57:26.248Z,100.00
2022-11-22T13:00:14.538Z,98.29
2022-11-22T13:02:47.094Z,98.85
2022-11-22T13:05:15.160Z,97.12
2022-11-22T13:07:59.779Z,95.35
2022-11-22T13:10:29.272Z,93.77
2022-11-22T13:12:58.955Z,94.60
2022-11-22T13:15:31.715Z,95.05
2022-11-22T13:17:58.683Z,94.59
2022-11-22T13:20:42.949Z,93.19
2022-11-22T13:23:50.054Z,94.70
2022-11-22T13:26:27.649Z,93.24
2022-11-22T13:28:55.679Z,91.44
2022-11-22T13:31:22.281Z,91.14
2022-11-22T13:34:02.295Z,90.94
2022-11-22T13:36:31.794Z,91.72
2022-11-22T13:39:01.120Z,92.59
2022-11-22T13:41:36.683Z,92.99
2022-11-22T13:44:21.762Z,94.16
2022-11-22T13:47:13.199Z,93.97
2022-11-22T13:49:49.404Z,93.71
2022-11-22T13:52:16.054Z,92.84
2022-11-22T13:54:48.375Z,93.28
2022-11-22T13:57:34.782Z,93.66
2022-11-22T14:00:16.688Z,94.80
2022-11-22T14:03:08.602Z,94.81
2022-11-22T14:05:41.669Z,96.25
2022-11-22T14:08:44.051Z,95.80
2022-11-22T14:11:30.215Z,96.75
2022-11-22T14:14:35.505Z,96.34
2022-11-22T14:17:26.384Z,95.84
2022-11-22T14:20:28.611Z,95.92
2022-11-22T14:23:04.346Z,95.27
2022-11-22T14:25:49.109Z,95.69
2022-11-22T14:28:38.773Z,95.45
2022-11-22T14:31:23.237Z,96.68
2022-11-22T14:34:23.706Z,97.09
2022-11-22T14:37:15.440Z,96.34
2022-11-22T14:39:44.683Z,96.04
2022-11-22T14:42:36.654Z,95.97
2022-11-22T14:45:42.448Z,96.37
2022-11-22T14:48:15.518Z,96.45
2022-11-22T14:50:48.322Z,97.11
2022-11-22T14:53:33.220Z,97.62
2022-11-22T14:56:07.999Z,99.15
2022-11-22T14:58:41.025Z,100.00
2022-11-22T15:01:35.755Z,100.00
2022-11-22T15:09:20.357Z,100.00
2022-11-22T15:09:29.397Z,100.00
2022-11-22T15:11:07.983Z,100.00
2022-11-22T15:13:49.452Z,100.00
2022-11-22T15:57:24.381Z,100.00
2022-11-22T15:59:54.337Z,100.00
2022-11-22T16:02:25.956Z,100.00
2022-11-22T16:06:05.372Z,100.00
2022-11-22T16:07:52.575Z,100.00
2022-11-22T16:10:24.190Z,100.00
2022-11-22T16:12:52.536Z,100.00
2022-11-22T16:15:22.597Z,100.00
2022-11-22T16:17:56.429Z,100.00
2022-11-22T16:20:28.968Z,100.00
2022-11-22T16:23:11.835Z,100.00
2022-11-22T16:25:43.942Z,100.00
2022-11-22T16:28:32.104Z,100.00
2022-11-22T16:31:02.115Z,100.00
2022-11-22T16:33:29.348Z,100.00
2022-11-22T16:35:58.504Z,100.00
2022-11-22T16:38:26.164Z,100.00
2022-11-22T16:40:54.665Z,100.00
2022-11-22T16:43:23.340Z,100.00
2022-11-22T16:45:50.787Z,100.00
2022-11-22T16:48:31.764Z,100.00
2022-11-22T16:51:05.043Z,100.00
2022-11-22T16:53:41.475Z,100.00
2022-11-22T16:56:09.342Z,100.00
2022-11-22T16:58:35.903Z,100.00
2022-11-22T17:01:02.703Z,100.00
2022-11-22T17:03:31.841Z,100.00
2022-11-22T17:05:58.495Z,100.00
2022-11-22T17:08:26.019Z,100.00
2022-11-22T17:10:52.992Z,100.00
2022-11-22T17:13:28.044Z,100.00
2022-11-22T17:15:56.067Z,100.00
2022-11-22T17:18:23.087Z,100.00
2022-11-22T17:20:49.930Z,100.00
2022-11-22T17:23:21.089Z,100.00
2022-11-22T17:25:47.712Z,100.00
2022-11-22T17:28:14.488Z,100.00
2022-11-22T17:30:41.071Z,100.00
2022-11-22T17:33:08.614Z,100.00
2022-11-22T17:35:37.234Z,100.00
2022-11-22T17:38:04.891Z,100.00
2022-11-22T17:40:31.728Z,100.00
2022-11-22T17:42:58.764Z,100.00
2022-11-22T17:45:25.269Z,100.00
2022-11-22T17:47:51.995Z,100.00
2022-11-22T17:50:18.689Z,100.00
2022-11-22T17:52:45.311Z,100.00
2022-11-22T17:55:14.353Z,100.00
2022-11-22T17:57:41.265Z,100.00
2022-11-22T18:00:08.449Z,100.00
2022-11-22T18:02:35.279Z,100.00
2022-11-22T18:05:05.746Z,100.00
2022-11-22T18:07:32.457Z,100.00
2022-11-22T18:09:59.074Z,100.00
2022-11-22T18:12:25.700Z,100.00
2022-11-22T18:14:52.322Z,100.00
2022-11-22T18:17:18.900Z,100.00
2022-11-22T18:19:45.418Z,100.00
2022-11-22T18:22:12.007Z,100.00
2022-11-22T18:24:38.692Z,100.00
2022-11-22T18:27:05.240Z,100.00
2022-11-22T18:29:53.517Z,100.00
2022-11-22T18:32:18.474Z,100.00
2022-11-22T18:34:45.206Z,100.00
2022-11-22T18:37:11.845Z,100.00
2022-11-22T18:39:40.002Z,100.00
2022-11-22T18:42:10.443Z,100.00
2022-11-22T18:44:36.917Z,100.00
2022-11-22T18:47:03.818Z,100.00
2022-11-22T18:49:31.174Z,100.00
2022-11-22T18:51:58.070Z,100.00
2022-11-22T18:54:24.730Z,100.00
2022-11-22T18:56:51.811Z,100.00
2022-11-22T18:59:18.805Z,100.00
2022-11-22T19:01:45.644Z,100.00
2022-11-22T19:04:14.987Z,100.00
2022-11-22T19:06:45.602Z,100.00
2022-11-22T19:09:12.491Z,100.00
2022-11-22T19:11:40.248Z,100.00
2022-11-22T19:14:07.693Z,100.00
2022-11-22T19:16:35.559Z,100.00
2022-11-22T19:19:02.240Z,100.00
2022-11-22T19:21:29.961Z,100.00
2022-11-22T19:23:57.020Z,100.00
2022-11-22T19:26:25.708Z,100.00
2022-11-22T19:28:57.730Z,100.00
2022-11-22T19:31:28.050Z,100.00
2022-11-22T19:33:55.453Z,100.00
2022-11-22T19:36:30.498Z,100.00
2022-11-22T19:38:58.750Z,100.00
2022-11-22T19:41:25.485Z,100.00
2022-11-22T19:43:52.572Z,100.00
2022-11-22T19:46:22.308Z,100.00
2022-11-22T19:48:57.417Z,100.00
2022-11-22T19:51:26.425Z,100.00
2022-11-22T19:54:03.742Z,100.00
2022-11-22T19:56:36.300Z,100.00
2022-11-22T19:59:09.293Z,100.00
2022-11-22T20:01:38.534Z,100.00
2022-11-22T20:04:15.322Z,100.00
2022-11-22T20:06:44.854Z,100.00
2022-11-22T20:09:13.839Z,100.00
2022-11-22T20:11:41.426Z,100.00
2022-11-22T20:14:09.453Z,100.00
2022-11-22T20:16:37.292Z,100.00
2022-11-22T20:19:06.941Z,100.00
2022-11-22T20:21:34.992Z,100.00
2022-11-22T20:24:02.546Z,100.00
2022-11-22T20:26:30.602Z,100.00
2022-11-22T20:29:05.840Z,100.00
2022-11-22T20:31:34.497Z,100.00
2022-11-22T20:34:02.003Z,100.00
2022-11-22T20:36:31.695Z,100.00
2022-11-22T20:38:58.845Z,100.00
2022-11-22T20:41:27.897Z,100.00
2022-11-22T20:43:55.915Z,100.00
2022-11-22T20:46:25.482Z,100.00
2022-11-22T20:48:55.530Z,100.00
2022-11-22T20:51:27.829Z,100.00
2022-11-22T20:53:57.435Z,100.00
2022-11-22T20:56:24.527Z,100.00
2022-11-22T20:58:52.365Z,100.00
2022-11-22T21:01:21.553Z,100.00
2022-11-22T21:03:49.042Z,100.00
2022-11-22T21:06:17.182Z,100.00
2022-11-22T21:08:45.787Z,100.00
2022-11-22T21:11:20.863Z,100.00
2022-11-22T21:13:48.136Z,100.00
2022-11-22T21:16:23.738Z,100.00
2022-11-22T21:19:07.004Z,100.00
2022-11-22T21:21:35.782Z,100.00
2022-11-22T21:24:04.465Z,100.00
2022-11-22T21:26:31.710Z,100.00
2022-11-22T21:28:59.658Z,100.00
2022-11-22T21:31:27.354Z,100.00
2022-11-22T21:33:54.339Z,100.00
2022-11-22T21:36:21.334Z,100.00
2022-11-22T21:38:48.356Z,100.00
2022-11-22T21:44:05.890Z,100.00
2022-11-22T21:46:32.459Z,100.00
2022-11-22T21:48:59.064Z,100.00
2022-11-22T21:51:26.462Z,100.00
2022-11-22T21:54:01.318Z,100.00
2022-11-22T21:56:28.306Z,100.00
2022-11-22T21:58:54.947Z,100.00
2022-11-22T22:01:22.238Z,100.00
2022-11-22T22:03:49.093Z,100.00
2022-11-22T22:06:15.676Z,100.00
2022-11-22T22:08:42.259Z,100.00
2022-11-22T22:11:08.843Z,100.00
2022-11-22T22:13:35.493Z,100.00
2022-11-22T22:16:06.579Z,100.00
2022-11-22T22:18:37.571Z,100.00
2022-11-22T22:21:08.618Z,100.00
2022-11-22T22:23:36.927Z,100.00
2022-11-22T22:26:09.865Z,100.00
2022-11-22T22:28:38.008Z,100.00
2022-11-22T22:31:10.297Z,100.00
2022-11-22T22:33:39.198Z,100.00
2022-11-22T22:36:07.128Z,100.00
2022-11-22T22:38:34.519Z,100.00
2022-11-22T22:41:04.031Z,100.00
2022-11-22T22:43:39.124Z,100.00
2022-11-22T22:46:09.845Z,100.00
2022-11-22T22:48:36.381Z,100.00
2022-11-22T22:51:06.644Z,100.00
2022-11-22T22:53:33.298Z,100.00
2022-11-22T22:55:59.893Z,100.00
2022-11-22T22:58:26.788Z,100.00
2022-11-22T23:00:53.353Z,100.00
2022-11-22T23:03:20.088Z,100.00
2022-11-22T23:05:46.718Z,100.00
2022-11-22T23:08:13.310Z,100.00
2022-11-22T23:10:41.133Z,100.00
2022-11-22T23:13:07.636Z,100.00
2022-11-22T23:15:57.023Z,100.00
2022-11-22T23:18:20.774Z,100.00
2022-11-22T23:20:47.340Z,100.00
2022-11-22T23:23:13.865Z,100.00
2022-11-22T23:25:40.394Z,100.00
2022-11-22T23:28:06.989Z,100.00
2022-11-22T23:30:33.514Z,100.00
2022-11-22T23:33:00.136Z,100.00
2022-11-22T23:35:26.714Z,100.00
2022-11-22T23:37:53.230Z,100.00
2022-11-22T23:40:19.779Z,100.00
2022-11-22T23:42:46.371Z,100.00
2022-11-22T23:45:12.987Z,100.00
2022-11-22T23:47:39.563Z,100.00
2022-11-22T23:50:06.604Z,100.00
2022-11-22T23:52:33.151Z,100.00
2022-11-22T23:54:59.701Z,100.00
2022-11-22T23:57:26.195Z,100.00
2022-11-22T23:59:52.731Z,100.00
